sensor_id;sensor_type;location;lat;lon;timestamp;P1;durP1;ratioP1;P2;durP2;ratioP2
33254;SDS011;19623;52.482;9.762;2022-12-20T00:01:20;20.52;;;10.88;;
33254;SDS011;19623;52.482;9.762;2022-12-20T00:03:48;22.25;;;10.95;;
33254;SDS011;19623;52.482;9.762;2022-12-20T00:06:15;19.60;;;10.43;;
33254;SDS011;19623;52.482;9.762;2022-12-20T00:08:41;23.48;;;10.93;;
33254;SDS011;19623;52.482;9.762;2022-12-20T00:11:07;19.20;;;11.18;;
33254;SDS011;19623;52.482;9.762;2022-12-20T00:13:33;21.85;;;11.15;;
33254;SDS011;19623;52.482;9.762;2022-12-20T00:18:42;17.60;;;10.27;;
33254;SDS011;19623;52.482;9.762;2022-12-20T00:21:10;18.23;;;10.43;;
33254;SDS011;19623;52.482;9.762;2022-12-20T00:23:37;22.38;;;10.23;;
33254;SDS011;19623;52.482;9.762;2022-12-20T00:28:34;25.45;;;11.35;;
33254;SDS011;19623;52.482;9.762;2022-12-20T00:31:00;20.98;;;10.82;;
33254;SDS011;19623;52.482;9.762;2022-12-20T00:33:26;20.58;;;10.63;;
33254;SDS011;19623;52.482;9.762;2022-12-20T00:35:53;23.33;;;10.43;;
33254;SDS011;19623;52.482;9.762;2022-12-20T00:38:23;19.70;;;10.70;;
33254;SDS011;19623;52.482;9.762;2022-12-20T00:41:08;21.13;;;10.98;;
33254;SDS011;19623;52.482;9.762;2022-12-20T00:43:36;23.27;;;11.10;;
33254;SDS011;19623;52.482;9.762;2022-12-20T00:46:03;23.65;;;11.57;;
33254;SDS011;19623;52.482;9.762;2022-12-20T00:48:30;18.98;;;10.95;;
33254;SDS011;19623;52.482;9.762;2022-12-20T00:50:57;23.50;;;11.63;;
33254;SDS011;19623;52.482;9.762;2022-12-20T00:53:27;19.05;;;10.85;;
33254;SDS011;19623;52.482;9.762;2022-12-20T00:55:53;21.58;;;10.93;;
33254;SDS011;19623;52.482;9.762;2022-12-20T00:58:19;21.67;;;11.85;;
33254;SDS011;19623;52.482;9.762;2022-12-20T01:00:45;22.95;;;11.38;;
33254;SDS011;19623;52.482;9.762;2022-12-20T01:03:11;23.08;;;11.15;;
33254;SDS011;19623;52.482;9.762;2022-12-20T01:05:37;23.60;;;11.52;;
33254;SDS011;19623;52.482;9.762;2022-12-20T01:08:03;23.10;;;11.48;;
33254;SDS011;19623;52.482;9.762;2022-12-20T01:10:29;23.92;;;12.70;;
33254;SDS011;19623;52.482;9.762;2022-12-20T01:12:56;23.20;;;11.32;;
33254;SDS011;19623;52.482;9.762;2022-12-20T01:15:21;21.35;;;11.55;;
33254;SDS011;19623;52.482;9.762;2022-12-20T01:17:48;22.13;;;12.02;;
33254;SDS011;19623;52.482;9.762;2022-12-20T01:20:14;21.83;;;11.48;;
33254;SDS011;19623;52.482;9.762;2022-12-20T01:22:39;21.98;;;11.68;;
33254;SDS011;19623;52.482;9.762;2022-12-20T01:25:05;20.85;;;11.70;;
33254;SDS011;19623;52.482;9.762;2022-12-20T01:27:31;20.63;;;10.63;;
33254;SDS011;19623;52.482;9.762;2022-12-20T01:29:58;23.38;;;12.38;;
33254;SDS011;19623;52.482;9.762;2022-12-20T01:32:24;21.98;;;11.85;;
33254;SDS011;19623;52.482;9.762;2022-12-20T01:34:49;22.83;;;11.40;;
33254;SDS011;19623;52.482;9.762;2022-12-20T01:37:15;23.48;;;11.80;;
33254;SDS011;19623;52.482;9.762;2022-12-20T01:39:41;21.67;;;11.52;;
33254;SDS011;19623;52.482;9.762;2022-12-20T01:42:09;20.77;;;11.45;;
33254;SDS011;19623;52.482;9.762;2022-12-20T01:47:08;23.20;;;12.10;;
33254;SDS011;19623;52.482;9.762;2022-12-20T01:49:39;20.52;;;10.63;;
33254;SDS011;19623;52.482;9.762;2022-12-20T01:52:09;20.17;;;11.40;;
33254;SDS011;19623;52.482;9.762;2022-12-20T01:54:50;20.50;;;11.35;;
33254;SDS011;19623;52.482;9.762;2022-12-20T01:57:30;18.52;;;10.95;;
33254;SDS011;19623;52.482;9.762;2022-12-20T02:00:09;20.42;;;11.10;;
33254;SDS011;19623;52.482;9.762;2022-12-20T02:02:36;17.67;;;10.20;;
33254;SDS011;19623;52.482;9.762;2022-12-20T02:05:02;19.33;;;10.68;;
33254;SDS011;19623;52.482;9.762;2022-12-20T02:07:30;21.90;;;11.30;;
33254;SDS011;19623;52.482;9.762;2022-12-20T02:09:58;23.15;;;11.10;;
33254;SDS011;19623;52.482;9.762;2022-12-20T02:12:28;16.33;;;10.35;;
33254;SDS011;19623;52.482;9.762;2022-12-20T02:25:41;19.42;;;10.48;;
33254;SDS011;19623;52.482;9.762;2022-12-20T02:31:02;18.45;;;9.82;;
33254;SDS011;19623;52.482;9.762;2022-12-20T02:33:31;17.17;;;10.25;;
33254;SDS011;19623;52.482;9.762;2022-12-20T02:35:57;18.50;;;10.15;;
33254;SDS011;19623;52.482;9.762;2022-12-20T02:43:39;22.48;;;11.00;;
33254;SDS011;19623;52.482;9.762;2022-12-20T02:46:26;23.98;;;10.10;;
33254;SDS011;19623;52.482;9.762;2022-12-20T02:48:53;19.63;;;10.13;;
33254;SDS011;19623;52.482;9.762;2022-12-20T02:53:50;19.55;;;10.43;;
33254;SDS011;19623;52.482;9.762;2022-12-20T02:59:27;18.92;;;10.20;;
33254;SDS011;19623;52.482;9.762;2022-12-20T03:01:51;18.48;;;10.05;;
33254;SDS011;19623;52.482;9.762;2022-12-20T03:04:19;24.42;;;10.48;;
33254;SDS011;19623;52.482;9.762;2022-12-20T03:07:21;18.08;;;9.65;;
33254;SDS011;19623;52.482;9.762;2022-12-20T03:09:41;18.48;;;10.32;;
33254;SDS011;19623;52.482;9.762;2022-12-20T03:12:08;17.60;;;10.43;;
33254;SDS011;19623;52.482;9.762;2022-12-20T03:14:36;20.90;;;10.57;;
33254;SDS011;19623;52.482;9.762;2022-12-20T03:17:05;15.90;;;9.50;;
33254;SDS011;19623;52.482;9.762;2022-12-20T03:19:31;18.85;;;9.70;;
33254;SDS011;19623;52.482;9.762;2022-12-20T03:21:57;17.95;;;9.35;;
33254;SDS011;19623;52.482;9.762;2022-12-20T03:24:23;18.73;;;9.73;;
33254;SDS011;19623;52.482;9.762;2022-12-20T03:26:50;20.90;;;10.15;;
33254;SDS011;19623;52.482;9.762;2022-12-20T03:29:15;18.13;;;10.10;;
33254;SDS011;19623;52.482;9.762;2022-12-20T03:31:41;17.67;;;9.88;;
33254;SDS011;19623;52.482;9.762;2022-12-20T03:34:07;18.00;;;10.13;;
33254;SDS011;19623;52.482;9.762;2022-12-20T03:36:32;21.17;;;9.80;;
33254;SDS011;19623;52.482;9.762;2022-12-20T03:38:58;17.63;;;9.70;;
33254;SDS011;19623;52.482;9.762;2022-12-20T03:41:24;20.70;;;10.13;;
33254;SDS011;19623;52.482;9.762;2022-12-20T03:43:51;17.10;;;9.60;;
33254;SDS011;19623;52.482;9.762;2022-12-20T03:46:16;19.83;;;9.45;;
33254;SDS011;19623;52.482;9.762;2022-12-20T03:48:42;15.82;;;9.75;;
33254;SDS011;19623;52.482;9.762;2022-12-20T03:51:08;17.45;;;10.40;;
33254;SDS011;19623;52.482;9.762;2022-12-20T03:53:34;16.85;;;9.70;;
33254;SDS011;19623;52.482;9.762;2022-12-20T03:55:59;21.55;;;9.55;;
33254;SDS011;19623;52.482;9.762;2022-12-20T03:58:25;18.42;;;9.63;;
33254;SDS011;19623;52.482;9.762;2022-12-20T04:00:50;18.33;;;9.32;;
33254;SDS011;19623;52.482;9.762;2022-12-20T04:03:16;15.10;;;9.27;;
33254;SDS011;19623;52.482;9.762;2022-12-20T04:05:42;14.68;;;9.40;;
33254;SDS011;19623;52.482;9.762;2022-12-20T04:08:08;19.77;;;9.77;;
33254;SDS011;19623;52.482;9.762;2022-12-20T04:10:33;21.13;;;9.95;;
33254;SDS011;19623;52.482;9.762;2022-12-20T04:13:22;20.83;;;10.32;;
33254;SDS011;19623;52.482;9.762;2022-12-20T04:15:47;18.50;;;9.77;;
33254;SDS011;19623;52.482;9.762;2022-12-20T04:18:13;18.52;;;10.07;;
33254;SDS011;19623;52.482;9.762;2022-12-20T04:20:38;23.05;;;10.52;;
33254;SDS011;19623;52.482;9.762;2022-12-20T04:23:04;16.60;;;9.60;;
33254;SDS011;19623;52.482;9.762;2022-12-20T04:25:30;21.30;;;10.82;;
33254;SDS011;19623;52.482;9.762;2022-12-20T04:27:55;17.38;;;10.00;;
33254;SDS011;19623;52.482;9.762;2022-12-20T04:30:21;20.10;;;9.77;;
33254;SDS011;19623;52.482;9.762;2022-12-20T04:32:47;15.05;;;9.25;;
33254;SDS011;19623;52.482;9.762;2022-12-20T04:35:12;17.10;;;9.70;;
33254;SDS011;19623;52.482;9.762;2022-12-20T04:37:38;18.80;;;10.27;;
33254;SDS011;19623;52.482;9.762;2022-12-20T04:40:04;15.73;;;9.88;;
33254;SDS011;19623;52.482;9.762;2022-12-20T04:42:30;17.17;;;9.00;;
33254;SDS011;19623;52.482;9.762;2022-12-20T04:44:56;15.75;;;9.43;;
33254;SDS011;19623;52.482;9.762;2022-12-20T04:47:22;16.48;;;9.32;;
33254;SDS011;19623;52.482;9.762;2022-12-20T04:49:47;19.60;;;9.15;;
33254;SDS011;19623;52.482;9.762;2022-12-20T04:52:13;16.90;;;9.32;;
33254;SDS011;19623;52.482;9.762;2022-12-20T04:54:57;19.17;;;9.68;;
33254;SDS011;19623;52.482;9.762;2022-12-20T04:57:23;16.40;;;9.57;;
33254;SDS011;19623;52.482;9.762;2022-12-20T04:59:48;17.50;;;10.07;;
33254;SDS011;19623;52.482;9.762;2022-12-20T05:02:14;18.98;;;9.77;;
33254;SDS011;19623;52.482;9.762;2022-12-20T05:04:39;19.48;;;9.50;;
33254;SDS011;19623;52.482;9.762;2022-12-20T05:07:05;15.05;;;9.35;;
33254;SDS011;19623;52.482;9.762;2022-12-20T05:09:31;16.08;;;9.90;;
33254;SDS011;19623;52.482;9.762;2022-12-20T05:11:56;18.25;;;10.63;;
33254;SDS011;19623;52.482;9.762;2022-12-20T05:14:22;19.13;;;10.27;;
33254;SDS011;19623;52.482;9.762;2022-12-20T05:16:47;18.67;;;10.57;;
33254;SDS011;19623;52.482;9.762;2022-12-20T05:19:13;20.38;;;10.82;;
33254;SDS011;19623;52.482;9.762;2022-12-20T05:21:38;18.73;;;10.55;;
33254;SDS011;19623;52.482;9.762;2022-12-20T05:24:23;18.63;;;10.70;;
33254;SDS011;19623;52.482;9.762;2022-12-20T05:27:07;19.30;;;10.05;;
33254;SDS011;19623;52.482;9.762;2022-12-20T05:29:32;19.30;;;10.68;;
33254;SDS011;19623;52.482;9.762;2022-12-20T05:31:58;18.85;;;10.95;;
33254;SDS011;19623;52.482;9.762;2022-12-20T05:34:23;20.80;;;10.15;;
33254;SDS011;19623;52.482;9.762;2022-12-20T05:36:49;17.02;;;9.93;;
33254;SDS011;19623;52.482;9.762;2022-12-20T05:39:15;21.58;;;11.20;;
33254;SDS011;19623;52.482;9.762;2022-12-20T05:41:41;20.73;;;10.65;;
33254;SDS011;19623;52.482;9.762;2022-12-20T05:44:07;19.92;;;9.88;;
33254;SDS011;19623;52.482;9.762;2022-12-20T05:46:32;20.55;;;10.30;;
33254;SDS011;19623;52.482;9.762;2022-12-20T05:48:58;19.33;;;11.20;;
33254;SDS011;19623;52.482;9.762;2022-12-20T05:51:24;21.20;;;10.35;;
33254;SDS011;19623;52.482;9.762;2022-12-20T05:53:49;18.77;;;11.00;;
33254;SDS011;19623;52.482;9.762;2022-12-20T05:56:15;18.77;;;10.90;;
33254;SDS011;19623;52.482;9.762;2022-12-20T05:58:41;19.27;;;10.65;;
33254;SDS011;19623;52.482;9.762;2022-12-20T06:01:07;18.20;;;10.50;;
33254;SDS011;19623;52.482;9.762;2022-12-20T06:03:34;18.02;;;10.70;;
33254;SDS011;19623;52.482;9.762;2022-12-20T06:06:00;19.17;;;11.00;;
33254;SDS011;19623;52.482;9.762;2022-12-20T06:08:26;16.33;;;9.55;;
33254;SDS011;19623;52.482;9.762;2022-12-20T06:10:51;18.17;;;9.88;;
33254;SDS011;19623;52.482;9.762;2022-12-20T06:13:17;18.17;;;10.77;;
33254;SDS011;19623;52.482;9.762;2022-12-20T06:15:44;19.52;;;10.43;;
33254;SDS011;19623;52.482;9.762;2022-12-20T06:18:09;18.40;;;10.30;;
33254;SDS011;19623;52.482;9.762;2022-12-20T06:20:35;19.65;;;9.75;;
33254;SDS011;19623;52.482;9.762;2022-12-20T06:23:02;19.80;;;11.45;;
33254;SDS011;19623;52.482;9.762;2022-12-20T06:25:28;16.85;;;10.07;;
33254;SDS011;19623;52.482;9.762;2022-12-20T06:27:54;19.98;;;10.48;;
33254;SDS011;19623;52.482;9.762;2022-12-20T06:30:20;18.70;;;9.85;;
33254;SDS011;19623;52.482;9.762;2022-12-20T06:32:47;21.08;;;10.10;;
33254;SDS011;19623;52.482;9.762;2022-12-20T06:35:13;16.17;;;9.20;;
33254;SDS011;19623;52.482;9.762;2022-12-20T06:37:39;18.75;;;10.95;;
33254;SDS011;19623;52.482;9.762;2022-12-20T06:40:07;16.98;;;9.77;;
33254;SDS011;19623;52.482;9.762;2022-12-20T06:42:33;16.92;;;9.85;;
33254;SDS011;19623;52.482;9.762;2022-12-20T06:44:59;17.25;;;10.05;;
33254;SDS011;19623;52.482;9.762;2022-12-20T06:47:25;19.50;;;10.23;;
33254;SDS011;19623;52.482;9.762;2022-12-20T06:49:50;19.13;;;10.52;;
33254;SDS011;19623;52.482;9.762;2022-12-20T06:52:16;20.25;;;10.60;;
33254;SDS011;19623;52.482;9.762;2022-12-20T06:54:42;18.75;;;10.32;;
33254;SDS011;19623;52.482;9.762;2022-12-20T06:57:07;18.58;;;9.75;;
33254;SDS011;19623;52.482;9.762;2022-12-20T06:59:33;18.30;;;10.27;;
33254;SDS011;19623;52.482;9.762;2022-12-20T07:01:59;18.35;;;10.05;;
33254;SDS011;19623;52.482;9.762;2022-12-20T07:04:25;17.55;;;10.02;;
33254;SDS011;19623;52.482;9.762;2022-12-20T07:06:51;18.50;;;10.52;;
33254;SDS011;19623;52.482;9.762;2022-12-20T07:09:17;19.08;;;10.38;;
33254;SDS011;19623;52.482;9.762;2022-12-20T07:11:42;18.98;;;10.32;;
33254;SDS011;19623;52.482;9.762;2022-12-20T07:14:08;17.52;;;10.40;;
33254;SDS011;19623;52.482;9.762;2022-12-20T07:16:34;18.50;;;10.02;;
33254;SDS011;19623;52.482;9.762;2022-12-20T07:19:00;19.98;;;9.77;;
33254;SDS011;19623;52.482;9.762;2022-12-20T07:21:26;15.93;;;10.13;;
33254;SDS011;19623;52.482;9.762;2022-12-20T07:23:53;14.23;;;9.43;;
33254;SDS011;19623;52.482;9.762;2022-12-20T07:26:19;18.95;;;10.25;;
33254;SDS011;19623;52.482;9.762;2022-12-20T07:28:49;15.15;;;9.35;;
33254;SDS011;19623;52.482;9.762;2022-12-20T07:31:14;17.98;;;9.88;;
33254;SDS011;19623;52.482;9.762;2022-12-20T07:33:40;15.82;;;9.18;;
33254;SDS011;19623;52.482;9.762;2022-12-20T07:36:07;18.88;;;9.20;;
33254;SDS011;19623;52.482;9.762;2022-12-20T07:38:38;16.67;;;9.20;;
33254;SDS011;19623;52.482;9.762;2022-12-20T07:41:11;16.75;;;9.55;;
33254;SDS011;19623;52.482;9.762;2022-12-20T07:43:38;16.92;;;9.63;;
33254;SDS011;19623;52.482;9.762;2022-12-20T07:46:04;15.45;;;8.75;;
33254;SDS011;19623;52.482;9.762;2022-12-20T07:48:31;20.10;;;10.32;;
33254;SDS011;19623;52.482;9.762;2022-12-20T07:51:01;14.75;;;9.20;;
33254;SDS011;19623;52.482;9.762;2022-12-20T07:53:33;14.95;;;9.10;;
33254;SDS011;19623;52.482;9.762;2022-12-20T07:56:04;14.55;;;8.95;;
33254;SDS011;19623;52.482;9.762;2022-12-20T07:58:32;17.67;;;9.38;;
33254;SDS011;19623;52.482;9.762;2022-12-20T08:00:58;15.15;;;9.60;;
33254;SDS011;19623;52.482;9.762;2022-12-20T08:03:29;20.00;;;10.05;;
33254;SDS011;19623;52.482;9.762;2022-12-20T08:06:01;17.85;;;10.23;;
33254;SDS011;19623;52.482;9.762;2022-12-20T08:08:33;15.38;;;9.15;;
33254;SDS011;19623;52.482;9.762;2022-12-20T08:11:06;16.98;;;8.93;;
33254;SDS011;19623;52.482;9.762;2022-12-20T08:13:34;16.35;;;8.70;;
33254;SDS011;19623;52.482;9.762;2022-12-20T08:16:00;19.38;;;9.98;;
33254;SDS011;19623;52.482;9.762;2022-12-20T08:18:25;19.33;;;9.80;;
33254;SDS011;19623;52.482;9.762;2022-12-20T08:20:51;16.27;;;9.30;;
33254;SDS011;19623;52.482;9.762;2022-12-20T08:23:17;19.88;;;9.75;;
33254;SDS011;19623;52.482;9.762;2022-12-20T08:25:43;16.73;;;9.25;;
33254;SDS011;19623;52.482;9.762;2022-12-20T08:28:09;15.43;;;8.68;;
33254;SDS011;19623;52.482;9.762;2022-12-20T08:30:35;16.45;;;8.95;;
33254;SDS011;19623;52.482;9.762;2022-12-20T08:33:01;18.88;;;8.90;;
33254;SDS011;19623;52.482;9.762;2022-12-20T08:35:27;15.45;;;8.90;;
33254;SDS011;19623;52.482;9.762;2022-12-20T08:37:52;14.98;;;8.60;;
33254;SDS011;19623;52.482;9.762;2022-12-20T08:40:18;18.10;;;8.90;;
33254;SDS011;19623;52.482;9.762;2022-12-20T08:42:44;14.75;;;9.00;;
33254;SDS011;19623;52.482;9.762;2022-12-20T08:45:10;14.68;;;8.30;;
33254;SDS011;19623;52.482;9.762;2022-12-20T08:47:36;16.52;;;8.10;;
33254;SDS011;19623;52.482;9.762;2022-12-20T08:50:02;15.32;;;8.27;;
33254;SDS011;19623;52.482;9.762;2022-12-20T08:52:28;15.52;;;8.80;;
33254;SDS011;19623;52.482;9.762;2022-12-20T08:54:54;13.20;;;8.43;;
33254;SDS011;19623;52.482;9.762;2022-12-20T08:57:19;14.73;;;8.52;;
33254;SDS011;19623;52.482;9.762;2022-12-20T08:59:45;13.95;;;7.88;;
33254;SDS011;19623;52.482;9.762;2022-12-20T09:02:11;18.80;;;9.15;;
33254;SDS011;19623;52.482;9.762;2022-12-20T09:04:37;13.57;;;7.38;;
33254;SDS011;19623;52.482;9.762;2022-12-20T09:07:02;14.65;;;8.45;;
33254;SDS011;19623;52.482;9.762;2022-12-20T09:09:28;13.05;;;7.40;;
33254;SDS011;19623;52.482;9.762;2022-12-20T09:11:54;15.68;;;8.07;;
33254;SDS011;19623;52.482;9.762;2022-12-20T09:14:20;13.57;;;7.95;;
33254;SDS011;19623;52.482;9.762;2022-12-20T09:16:45;12.98;;;8.20;;
33254;SDS011;19623;52.482;9.762;2022-12-20T09:19:12;15.05;;;8.45;;
33254;SDS011;19623;52.482;9.762;2022-12-20T09:21:38;11.45;;;7.22;;
33254;SDS011;19623;52.482;9.762;2022-12-20T09:24:04;12.98;;;7.78;;
33254;SDS011;19623;52.482;9.762;2022-12-20T09:26:30;13.63;;;7.93;;
33254;SDS011;19623;52.482;9.762;2022-12-20T09:28:56;12.50;;;7.30;;
33254;SDS011;19623;52.482;9.762;2022-12-20T09:31:23;13.43;;;7.43;;
33254;SDS011;19623;52.482;9.762;2022-12-20T09:33:56;13.65;;;7.43;;
33254;SDS011;19623;52.482;9.762;2022-12-20T09:36:23;11.10;;;7.18;;
33254;SDS011;19623;52.482;9.762;2022-12-20T09:38:50;13.07;;;7.43;;
33254;SDS011;19623;52.482;9.762;2022-12-20T09:44:09;13.70;;;7.43;;
33254;SDS011;19623;52.482;9.762;2022-12-20T09:46:40;12.60;;;7.28;;
33254;SDS011;19623;52.482;9.762;2022-12-20T09:49:09;10.45;;;6.85;;
33254;SDS011;19623;52.482;9.762;2022-12-20T09:57:28;11.50;;;7.07;;
33254;SDS011;19623;52.482;9.762;2022-12-20T09:59:57;11.48;;;6.40;;
33254;SDS011;19623;52.482;9.762;2022-12-20T10:02:23;17.48;;;6.75;;
33254;SDS011;19623;52.482;9.762;2022-12-20T10:04:51;11.27;;;6.32;;
33254;SDS011;19623;52.482;9.762;2022-12-20T10:12:38;13.30;;;7.30;;
33254;SDS011;19623;52.482;9.762;2022-12-20T10:20:43;12.07;;;6.20;;
33254;SDS011;19623;52.482;9.762;2022-12-20T10:23:16;12.23;;;6.35;;
33254;SDS011;19623;52.482;9.762;2022-12-20T10:25:57;11.15;;;6.32;;
33254;SDS011;19623;52.482;9.762;2022-12-20T10:28:40;11.57;;;5.55;;
33254;SDS011;19623;52.482;9.762;2022-12-20T10:31:10;10.35;;;5.63;;
33254;SDS011;19623;52.482;9.762;2022-12-20T10:33:38;14.82;;;6.60;;
33254;SDS011;19623;52.482;9.762;2022-12-20T10:38:56;10.45;;;5.40;;
33254;SDS011;19623;52.482;9.762;2022-12-20T10:41:25;11.07;;;6.13;;
33254;SDS011;19623;52.482;9.762;2022-12-20T10:44:04;8.25;;;5.18;;
33254;SDS011;19623;52.482;9.762;2022-12-20T10:46:41;7.63;;;4.75;;
33254;SDS011;19623;52.482;9.762;2022-12-20T10:57:00;9.63;;;5.03;;
33254;SDS011;19623;52.482;9.762;2022-12-20T10:59:38;8.63;;;5.22;;
33254;SDS011;19623;52.482;9.762;2022-12-20T11:02:25;11.65;;;5.32;;
33254;SDS011;19623;52.482;9.762;2022-12-20T11:05:20;10.13;;;5.35;;
33254;SDS011;19623;52.482;9.762;2022-12-20T11:07:52;9.23;;;5.47;;
33254;SDS011;19623;52.482;9.762;2022-12-20T11:10:32;8.05;;;5.05;;
33254;SDS011;19623;52.482;9.762;2022-12-20T11:12:58;7.60;;;4.60;;
33254;SDS011;19623;52.482;9.762;2022-12-20T11:15:26;9.23;;;5.13;;
33254;SDS011;19623;52.482;9.762;2022-12-20T11:20:34;7.93;;;4.57;;
33254;SDS011;19623;52.482;9.762;2022-12-20T11:23:09;10.52;;;4.70;;
33254;SDS011;19623;52.482;9.762;2022-12-20T11:28:18;10.77;;;4.78;;
33254;SDS011;19623;52.482;9.762;2022-12-20T11:34:09;8.45;;;4.80;;
33254;SDS011;19623;52.482;9.762;2022-12-20T11:37:07;10.40;;;4.57;;
33254;SDS011;19623;52.482;9.762;2022-12-20T11:40:09;7.18;;;4.18;;
33254;SDS011;19623;52.482;9.762;2022-12-20T11:43:14;9.07;;;4.35;;
33254;SDS011;19623;52.482;9.762;2022-12-20T11:46:18;11.18;;;5.10;;
33254;SDS011;19623;52.482;9.762;2022-12-20T11:51:58;7.95;;;4.45;;
33254;SDS011;19623;52.482;9.762;2022-12-20T11:54:27;8.05;;;4.70;;
33254;SDS011;19623;52.482;9.762;2022-12-20T11:56:58;8.68;;;4.38;;
33254;SDS011;19623;52.482;9.762;2022-12-20T11:59:50;9.90;;;4.55;;
33254;SDS011;19623;52.482;9.762;2022-12-20T12:08:24;8.82;;;4.60;;
33254;SDS011;19623;52.482;9.762;2022-12-20T12:11:01;5.78;;;4.05;;
33254;SDS011;19623;52.482;9.762;2022-12-20T12:13:35;7.13;;;4.00;;
33254;SDS011;19623;52.482;9.762;2022-12-20T12:18:35;9.98;;;4.28;;
33254;SDS011;19623;52.482;9.762;2022-12-20T12:21:05;8.38;;;4.35;;
33254;SDS011;19623;52.482;9.762;2022-12-20T12:23:38;8.40;;;4.30;;
33254;SDS011;19623;52.482;9.762;2022-12-20T12:26:11;8.15;;;4.68;;
33254;SDS011;19623;52.482;9.762;2022-12-20T12:28:48;6.45;;;4.13;;
33254;SDS011;19623;52.482;9.762;2022-12-20T12:31:37;9.40;;;4.40;;
33254;SDS011;19623;52.482;9.762;2022-12-20T12:48:12;7.63;;;3.90;;
33254;SDS011;19623;52.482;9.762;2022-12-20T12:51:01;6.97;;;4.25;;
33254;SDS011;19623;52.482;9.762;2022-12-20T12:56:28;7.72;;;3.70;;
33254;SDS011;19623;52.482;9.762;2022-12-20T13:04:21;7.35;;;4.45;;
33254;SDS011;19623;52.482;9.762;2022-12-20T13:06:53;10.10;;;5.57;;
33254;SDS011;19623;52.482;9.762;2022-12-20T13:11:52;12.85;;;6.85;;
33254;SDS011;19623;52.482;9.762;2022-12-20T13:16:46;13.77;;;5.70;;
33254;SDS011;19623;52.482;9.762;2022-12-20T13:19:13;7.38;;;3.90;;
33254;SDS011;19623;52.482;9.762;2022-12-20T13:21:56;8.35;;;3.75;;
33254;SDS011;19623;52.482;9.762;2022-12-20T13:24:55;24.27;;;13.63;;
33254;SDS011;19623;52.482;9.762;2022-12-20T13:37:53;8.48;;;4.40;;
33254;SDS011;19623;52.482;9.762;2022-12-20T13:43:14;19.20;;;8.48;;
33254;SDS011;19623;52.482;9.762;2022-12-20T13:45:48;10.70;;;6.25;;
33254;SDS011;19623;52.482;9.762;2022-12-20T13:48:30;7.35;;;3.60;;
33254;SDS011;19623;52.482;9.762;2022-12-20T13:51:03;7.07;;;4.13;;
33254;SDS011;19623;52.482;9.762;2022-12-20T13:53:30;6.15;;;3.88;;
33254;SDS011;19623;52.482;9.762;2022-12-20T13:55:56;22.52;;;12.60;;
33254;SDS011;19623;52.482;9.762;2022-12-20T13:58:25;20.42;;;10.57;;
33254;SDS011;19623;52.482;9.762;2022-12-20T14:01:02;13.90;;;8.10;;
33254;SDS011;19623;52.482;9.762;2022-12-20T14:03:31;13.27;;;5.28;;
33254;SDS011;19623;52.482;9.762;2022-12-20T14:06:08;29.42;;;14.15;;
33254;SDS011;19623;52.482;9.762;2022-12-20T14:08:35;18.98;;;8.63;;
33254;SDS011;19623;52.482;9.762;2022-12-20T14:11:13;11.90;;;6.47;;
33254;SDS011;19623;52.482;9.762;2022-12-20T14:13:40;18.95;;;9.82;;
33254;SDS011;19623;52.482;9.762;2022-12-20T14:16:10;12.43;;;6.63;;
33254;SDS011;19623;52.482;9.762;2022-12-20T14:18:47;6.53;;;3.70;;
33254;SDS011;19623;52.482;9.762;2022-12-20T14:21:22;13.25;;;5.95;;
33254;SDS011;19623;52.482;9.762;2022-12-20T14:23:50;7.72;;;4.00;;
33254;SDS011;19623;52.482;9.762;2022-12-20T14:26:19;11.23;;;5.45;;
33254;SDS011;19623;52.482;9.762;2022-12-20T14:28:48;9.80;;;5.00;;
33254;SDS011;19623;52.482;9.762;2022-12-20T14:31:23;13.82;;;6.82;;
33254;SDS011;19623;52.482;9.762;2022-12-20T14:36:30;21.88;;;10.20;;
33254;SDS011;19623;52.482;9.762;2022-12-20T14:38:57;17.67;;;6.43;;
33254;SDS011;19623;52.482;9.762;2022-12-20T14:41:30;9.00;;;4.80;;
33254;SDS011;19623;52.482;9.762;2022-12-20T14:44:02;6.97;;;3.53;;
33254;SDS011;19623;52.482;9.762;2022-12-20T14:46:38;6.80;;;4.72;;
33254;SDS011;19623;52.482;9.762;2022-12-20T14:51:42;5.35;;;3.83;;
33254;SDS011;19623;52.482;9.762;2022-12-20T14:54:15;7.00;;;3.33;;
33254;SDS011;19623;52.482;9.762;2022-12-20T14:56:44;6.03;;;3.70;;
33254;SDS011;19623;52.482;9.762;2022-12-20T14:59:15;7.03;;;3.88;;
33254;SDS011;19623;52.482;9.762;2022-12-20T15:01:48;8.18;;;3.90;;
33254;SDS011;19623;52.482;9.762;2022-12-20T15:04:31;6.50;;;3.42;;
33254;SDS011;19623;52.482;9.762;2022-12-20T15:06:59;6.13;;;3.90;;
33254;SDS011;19623;52.482;9.762;2022-12-20T15:09:25;6.25;;;3.65;;
33254;SDS011;19623;52.482;9.762;2022-12-20T15:11:51;10.05;;;3.83;;
33254;SDS011;19623;52.482;9.762;2022-12-20T15:14:35;8.85;;;3.45;;
33254;SDS011;19623;52.482;9.762;2022-12-20T15:17:04;6.63;;;3.58;;
33254;SDS011;19623;52.482;9.762;2022-12-20T15:19:34;6.55;;;3.85;;
33254;SDS011;19623;52.482;9.762;2022-12-20T15:22:00;8.38;;;3.42;;
33254;SDS011;19623;52.482;9.762;2022-12-20T15:24:27;7.03;;;3.90;;
33254;SDS011;19623;52.482;9.762;2022-12-20T15:26:53;6.88;;;3.50;;
33254;SDS011;19623;52.482;9.762;2022-12-20T15:29:23;8.82;;;3.95;;
33254;SDS011;19623;52.482;9.762;2022-12-20T15:31:52;6.00;;;3.33;;
33254;SDS011;19623;52.482;9.762;2022-12-20T15:36:56;6.82;;;3.88;;
33254;SDS011;19623;52.482;9.762;2022-12-20T15:39:24;41.53;;;19.33;;
33254;SDS011;19623;52.482;9.762;2022-12-20T15:41:50;10.13;;;4.20;;
33254;SDS011;19623;52.482;9.762;2022-12-20T15:44:21;7.95;;;3.78;;
33254;SDS011;19623;52.482;9.762;2022-12-20T15:46:48;7.50;;;3.38;;
33254;SDS011;19623;52.482;9.762;2022-12-20T15:49:16;7.28;;;3.58;;
33254;SDS011;19623;52.482;9.762;2022-12-20T15:51:50;12.07;;;3.70;;
33254;SDS011;19623;52.482;9.762;2022-12-20T15:54:22;8.60;;;3.40;;
33254;SDS011;19623;52.482;9.762;2022-12-20T15:56:51;7.70;;;3.90;;
33254;SDS011;19623;52.482;9.762;2022-12-20T15:59:18;8.23;;;4.00;;
33254;SDS011;19623;52.482;9.762;2022-12-20T16:01:44;7.57;;;3.85;;
33254;SDS011;19623;52.482;9.762;2022-12-20T16:04:13;5.40;;;3.53;;
33254;SDS011;19623;52.482;9.762;2022-12-20T16:06:47;7.47;;;4.15;;
33254;SDS011;19623;52.482;9.762;2022-12-20T16:09:14;9.57;;;4.88;;
33254;SDS011;19623;52.482;9.762;2022-12-20T16:11:40;7.32;;;3.65;;
33254;SDS011;19623;52.482;9.762;2022-12-20T16:14:09;10.00;;;3.92;;
33254;SDS011;19623;52.482;9.762;2022-12-20T16:16:39;8.18;;;3.88;;
33254;SDS011;19623;52.482;9.762;2022-12-20T16:19:05;7.07;;;3.85;;
33254;SDS011;19623;52.482;9.762;2022-12-20T16:21:34;7.97;;;3.92;;
33254;SDS011;19623;52.482;9.762;2022-12-20T16:24:08;7.30;;;3.90;;
33254;SDS011;19623;52.482;9.762;2022-12-20T16:26:38;6.25;;;3.83;;
33254;SDS011;19623;52.482;9.762;2022-12-20T16:29:03;9.27;;;4.13;;
33254;SDS011;19623;52.482;9.762;2022-12-20T16:31:30;9.52;;;4.10;;
33254;SDS011;19623;52.482;9.762;2022-12-20T16:33:58;6.55;;;4.10;;
33254;SDS011;19623;52.482;9.762;2022-12-20T16:36:27;7.13;;;4.15;;
33254;SDS011;19623;52.482;9.762;2022-12-20T16:38:53;7.20;;;4.00;;
33254;SDS011;19623;52.482;9.762;2022-12-20T16:41:20;6.68;;;4.10;;
33254;SDS011;19623;52.482;9.762;2022-12-20T16:43:47;6.32;;;4.43;;
33254;SDS011;19623;52.482;9.762;2022-12-20T16:46:17;9.38;;;3.92;;
33254;SDS011;19623;52.482;9.762;2022-12-20T16:51:20;8.02;;;4.03;;
33254;SDS011;19623;52.482;9.762;2022-12-20T16:56:27;9.05;;;4.10;;
33254;SDS011;19623;52.482;9.762;2022-12-20T16:58:52;8.80;;;4.38;;
33254;SDS011;19623;52.482;9.762;2022-12-20T17:01:20;8.15;;;4.40;;